sensor_id;sensor_type;location;lat;lon;timestamp;P1;durP1;ratioP1;P2;durP2;ratioP2
20482;SDS011;10400;53.198;6.592;2023-04-01T00:01:30;7.45;;;5.85;;
20482;SDS011;10400;53.198;6.592;2023-04-01T00:03:56;6.95;;;5.93;;
20482;SDS011;10400;53.198;6.592;2023-04-01T00:06:22;7.07;;;5.93;;
20482;SDS011;10400;53.198;6.592;2023-04-01T00:08:48;8.75;;;5.85;;
20482;SDS011;10400;53.198;6.592;2023-04-01T00:11:13;7.32;;;5.90;;
20482;SDS011;10400;53.198;6.592;2023-04-01T00:13:40;8.43;;;6.20;;
20482;SDS011;10400;53.198;6.592;2023-04-01T00:16:06;7.90;;;6.13;;
20482;SDS011;10400;53.198;6.592;2023-04-01T00:18:32;6.63;;;5.97;;
20482;SDS011;10400;53.198;6.592;2023-04-01T00:20:58;6.65;;;5.95;;
20482;SDS011;10400;53.198;6.592;2023-04-01T00:23:24;6.63;;;5.93;;
20482;SDS011;10400;53.198;6.592;2023-04-01T00:25:50;6.88;;;6.18;;
20482;SDS011;10400;53.198;6.592;2023-04-01T00:28:16;8.00;;;6.55;;
20482;SDS011;10400;53.198;6.592;2023-04-01T00:30:43;8.40;;;6.03;;
20482;SDS011;10400;53.198;6.592;2023-04-01T00:33:09;7.47;;;6.22;;
20482;SDS011;10400;53.198;6.592;2023-04-01T00:35:35;8.57;;;6.88;;
20482;SDS011;10400;53.198;6.592;2023-04-01T00:38:02;8.13;;;5.95;;
20482;SDS011;10400;53.198;6.592;2023-04-01T00:40:29;9.65;;;6.70;;
20482;SDS011;10400;53.198;6.592;2023-04-01T00:42:57;9.32;;;7.07;;
20482;SDS011;10400;53.198;6.592;2023-04-01T00:45:25;7.82;;;7.03;;
20482;SDS011;10400;53.198;6.592;2023-04-01T00:47:54;8.57;;;6.53;;
20482;SDS011;10400;53.198;6.592;2023-04-01T00:50:21;9.27;;;6.65;;
20482;SDS011;10400;53.198;6.592;2023-04-01T00:52:49;11.20;;;8.13;;
20482;SDS011;10400;53.198;6.592;2023-04-01T00:55:16;10.55;;;7.60;;
20482;SDS011;10400;53.198;6.592;2023-04-01T00:57:44;10.55;;;8.18;;
20482;SDS011;10400;53.198;6.592;2023-04-01T01:00:12;9.52;;;7.28;;
20482;SDS011;10400;53.198;6.592;2023-04-01T01:02:41;9.65;;;7.47;;
20482;SDS011;10400;53.198;6.592;2023-04-01T01:05:07;9.27;;;7.55;;
20482;SDS011;10400;53.198;6.592;2023-04-01T01:10:18;8.93;;;6.82;;
20482;SDS011;10400;53.198;6.592;2023-04-01T01:13:01;8.77;;;7.13;;
20482;SDS011;10400;53.198;6.592;2023-04-01T01:37:28;18.75;;;14.85;;
20482;SDS011;10400;53.198;6.592;2023-04-01T01:39:56;19.90;;;15.80;;
20482;SDS011;10400;53.198;6.592;2023-04-01T01:42:26;17.65;;;13.45;;
20482;SDS011;10400;53.198;6.592;2023-04-01T01:44:55;14.95;;;10.07;;
20482;SDS011;10400;53.198;6.592;2023-04-01T01:47:24;13.70;;;10.55;;
20482;SDS011;10400;53.198;6.592;2023-04-01T01:49:51;12.75;;;9.75;;
20482;SDS011;10400;53.198;6.592;2023-04-01T01:52:19;11.38;;;7.85;;
20482;SDS011;10400;53.198;6.592;2023-04-01T01:54:47;8.82;;;7.57;;
20482;SDS011;10400;53.198;6.592;2023-04-01T01:57:16;12.13;;;8.40;;
20482;SDS011;10400;53.198;6.592;2023-04-01T01:59:44;11.82;;;8.02;;
20482;SDS011;10400;53.198;6.592;2023-04-01T02:02:13;10.48;;;8.23;;
20482;SDS011;10400;53.198;6.592;2023-04-01T02:04:40;11.52;;;8.32;;
20482;SDS011;10400;53.198;6.592;2023-04-01T02:07:15;14.00;;;9.25;;
20482;SDS011;10400;53.198;6.592;2023-04-01T02:09:47;11.52;;;8.82;;
20482;SDS011;10400;53.198;6.592;2023-04-01T02:12:13;12.95;;;8.23;;
20482;SDS011;10400;53.198;6.592;2023-04-01T02:14:47;10.45;;;8.65;;
20482;SDS011;10400;53.198;6.592;2023-04-01T02:17:26;12.55;;;8.30;;
20482;SDS011;10400;53.198;6.592;2023-04-01T02:20:05;13.05;;;8.77;;
20482;SDS011;10400;53.198;6.592;2023-04-01T02:22:49;10.02;;;8.40;;
20482;SDS011;10400;53.198;6.592;2023-04-01T02:25:18;13.93;;;8.52;;
20482;SDS011;10400;53.198;6.592;2023-04-01T02:27:52;10.77;;;8.10;;
20482;SDS011;10400;53.198;6.592;2023-04-01T02:30:20;12.02;;;8.25;;
20482;SDS011;10400;53.198;6.592;2023-04-01T02:32:46;8.32;;;7.43;;
20482;SDS011;10400;53.198;6.592;2023-04-01T02:35:13;12.00;;;8.15;;
20482;SDS011;10400;53.198;6.592;2023-04-01T02:37:41;11.40;;;8.48;;
20482;SDS011;10400;53.198;6.592;2023-04-01T02:40:10;10.73;;;7.95;;
20482;SDS011;10400;53.198;6.592;2023-04-01T02:42:37;10.27;;;8.45;;
20482;SDS011;10400;53.198;6.592;2023-04-01T02:45:03;10.90;;;8.32;;
20482;SDS011;10400;53.198;6.592;2023-04-01T02:47:29;11.40;;;8.90;;
20482;SDS011;10400;53.198;6.592;2023-04-01T02:49:55;10.65;;;8.82;;
20482;SDS011;10400;53.198;6.592;2023-04-01T02:52:26;11.48;;;7.95;;
20482;SDS011;10400;53.198;6.592;2023-04-01T02:54:53;11.63;;;8.30;;
20482;SDS011;10400;53.198;6.592;2023-04-01T02:57:19;13.38;;;9.57;;
20482;SDS011;10400;53.198;6.592;2023-04-01T02:59:45;11.63;;;8.95;;
20482;SDS011;10400;53.198;6.592;2023-04-01T03:02:11;12.30;;;8.98;;
20482;SDS011;10400;53.198;6.592;2023-04-01T03:04:37;11.57;;;9.20;;
20482;SDS011;10400;53.198;6.592;2023-04-01T03:07:02;14.25;;;9.82;;
20482;SDS011;10400;53.198;6.592;2023-04-01T03:09:28;11.98;;;10.00;;
20482;SDS011;10400;53.198;6.592;2023-04-01T03:11:55;12.77;;;10.02;;
20482;SDS011;10400;53.198;6.592;2023-04-01T03:14:20;14.57;;;10.50;;
20482;SDS011;10400;53.198;6.592;2023-04-01T03:16:46;13.80;;;10.00;;
20482;SDS011;10400;53.198;6.592;2023-04-01T03:19:12;16.60;;;11.43;;
20482;SDS011;10400;53.198;6.592;2023-04-01T03:21:37;14.05;;;10.77;;
20482;SDS011;10400;53.198;6.592;2023-04-01T03:24:03;16.77;;;11.73;;
20482;SDS011;10400;53.198;6.592;2023-04-01T03:26:29;17.27;;;12.25;;
20482;SDS011;10400;53.198;6.592;2023-04-01T03:28:55;14.23;;;11.25;;
20482;SDS011;10400;53.198;6.592;2023-04-01T03:31:21;18.48;;;11.73;;
20482;SDS011;10400;53.198;6.592;2023-04-01T03:33:47;15.45;;;12.13;;
20482;SDS011;10400;53.198;6.592;2023-04-01T03:36:13;18.40;;;13.40;;
20482;SDS011;10400;53.198;6.592;2023-04-01T03:38:41;18.48;;;13.43;;
20482;SDS011;10400;53.198;6.592;2023-04-01T03:41:11;16.38;;;12.95;;
20482;SDS011;10400;53.198;6.592;2023-04-01T03:43:38;18.48;;;12.98;;
20482;SDS011;10400;53.198;6.592;2023-04-01T03:46:03;18.83;;;13.77;;
20482;SDS011;10400;53.198;6.592;2023-04-01T03:48:29;17.15;;;12.82;;
20482;SDS011;10400;53.198;6.592;2023-04-01T03:50:55;17.25;;;13.70;;
20482;SDS011;10400;53.198;6.592;2023-04-01T03:53:21;19.30;;;13.07;;
20482;SDS011;10400;53.198;6.592;2023-04-01T03:55:46;18.67;;;13.80;;
20482;SDS011;10400;53.198;6.592;2023-04-01T03:58:12;18.85;;;12.90;;
20482;SDS011;10400;53.198;6.592;2023-04-01T04:00:38;19.90;;;13.27;;
20482;SDS011;10400;53.198;6.592;2023-04-01T04:03:03;18.27;;;13.05;;
20482;SDS011;10400;53.198;6.592;2023-04-01T04:05:31;17.48;;;13.55;;
20482;SDS011;10400;53.198;6.592;2023-04-01T04:07:57;19.48;;;13.43;;
20482;SDS011;10400;53.198;6.592;2023-04-01T04:10:22;16.85;;;12.90;;
20482;SDS011;10400;53.198;6.592;2023-04-01T04:12:49;18.23;;;12.82;;
20482;SDS011;10400;53.198;6.592;2023-04-01T04:15:15;20.15;;;14.02;;
20482;SDS011;10400;53.198;6.592;2023-04-01T04:17:41;20.33;;;13.60;;
20482;SDS011;10400;53.198;6.592;2023-04-01T04:20:07;21.35;;;14.48;;
20482;SDS011;10400;53.198;6.592;2023-04-01T04:22:33;21.73;;;13.88;;
20482;SDS011;10400;53.198;6.592;2023-04-01T04:24:59;19.65;;;13.80;;
20482;SDS011;10400;53.198;6.592;2023-04-01T04:27:25;19.85;;;13.73;;
20482;SDS011;10400;53.198;6.592;2023-04-01T04:29:50;19.98;;;13.98;;
20482;SDS011;10400;53.198;6.592;2023-04-01T04:32:16;20.77;;;14.32;;
20482;SDS011;10400;53.198;6.592;2023-04-01T04:34:42;19.10;;;14.30;;
20482;SDS011;10400;53.198;6.592;2023-04-01T04:37:07;21.88;;;14.60;;
20482;SDS011;10400;53.198;6.592;2023-04-01T04:39:33;18.38;;;14.18;;
20482;SDS011;10400;53.198;6.592;2023-04-01T04:41:59;19.80;;;15.07;;
20482;SDS011;10400;53.198;6.592;2023-04-01T04:44:24;19.25;;;14.13;;
20482;SDS011;10400;53.198;6.592;2023-04-01T04:46:50;22.13;;;14.93;;
20482;SDS011;10400;53.198;6.592;2023-04-01T04:49:15;19.10;;;14.55;;
20482;SDS011;10400;53.198;6.592;2023-04-01T04:51:41;24.75;;;14.82;;
20482;SDS011;10400;53.198;6.592;2023-04-01T04:54:07;21.48;;;14.30;;
20482;SDS011;10400;53.198;6.592;2023-04-01T04:56:33;23.10;;;15.80;;
20482;SDS011;10400;53.198;6.592;2023-04-01T04:58:58;20.25;;;14.88;;
20482;SDS011;10400;53.198;6.592;2023-04-01T05:01:24;19.88;;;15.15;;
20482;SDS011;10400;53.198;6.592;2023-04-01T05:03:50;20.58;;;14.77;;
20482;SDS011;10400;53.198;6.592;2023-04-01T05:06:17;19.15;;;14.07;;
20482;SDS011;10400;53.198;6.592;2023-04-01T05:08:43;19.63;;;14.82;;
20482;SDS011;10400;53.198;6.592;2023-04-01T05:11:11;21.50;;;14.70;;
20482;SDS011;10400;53.198;6.592;2023-04-01T05:13:38;21.02;;;15.60;;
20482;SDS011;10400;53.198;6.592;2023-04-01T05:16:07;19.23;;;14.13;;
20482;SDS011;10400;53.198;6.592;2023-04-01T05:18:36;21.23;;;14.50;;
20482;SDS011;10400;53.198;6.592;2023-04-01T05:21:02;23.25;;;15.82;;
20482;SDS011;10400;53.198;6.592;2023-04-01T05:23:28;23.02;;;15.43;;
20482;SDS011;10400;53.198;6.592;2023-04-01T05:25:58;19.25;;;14.43;;
20482;SDS011;10400;53.198;6.592;2023-04-01T05:28:23;21.63;;;14.27;;
20482;SDS011;10400;53.198;6.592;2023-04-01T05:30:49;20.40;;;15.15;;
20482;SDS011;10400;53.198;6.592;2023-04-01T05:33:15;18.40;;;13.63;;
20482;SDS011;10400;53.198;6.592;2023-04-01T05:35:41;19.27;;;13.63;;
20482;SDS011;10400;53.198;6.592;2023-04-01T05:38:07;20.90;;;13.38;;
20482;SDS011;10400;53.198;6.592;2023-04-01T05:40:32;18.20;;;12.88;;
20482;SDS011;10400;53.198;6.592;2023-04-01T05:42:58;19.23;;;13.45;;
20482;SDS011;10400;53.198;6.592;2023-04-01T05:45:25;17.75;;;12.85;;
20482;SDS011;10400;53.198;6.592;2023-04-01T05:47:51;18.58;;;13.10;;
20482;SDS011;10400;53.198;6.592;2023-04-01T05:50:16;17.88;;;12.32;;
20482;SDS011;10400;53.198;6.592;2023-04-01T05:52:42;17.58;;;12.32;;
20482;SDS011;10400;53.198;6.592;2023-04-01T05:55:09;16.17;;;12.30;;
20482;SDS011;10400;53.198;6.592;2023-04-01T05:57:35;18.23;;;12.60;;
20482;SDS011;10400;53.198;6.592;2023-04-01T06:00:00;15.48;;;12.20;;
20482;SDS011;10400;53.198;6.592;2023-04-01T06:02:27;17.15;;;12.50;;
20482;SDS011;10400;53.198;6.592;2023-04-01T06:04:54;16.63;;;12.52;;
20482;SDS011;10400;53.198;6.592;2023-04-01T06:07:41;16.05;;;12.43;;
20482;SDS011;10400;53.198;6.592;2023-04-01T06:10:14;18.08;;;13.15;;
20482;SDS011;10400;53.198;6.592;2023-04-01T06:15:22;18.83;;;12.68;;
20482;SDS011;10400;53.198;6.592;2023-04-01T06:18:45;17.73;;;13.05;;
20482;SDS011;10400;53.198;6.592;2023-04-01T06:32:28;25.92;;;17.27;;
20482;SDS011;10400;53.198;6.592;2023-04-01T06:35:24;23.45;;;16.80;;
20482;SDS011;10400;53.198;6.592;2023-04-01T06:38:01;25.10;;;16.63;;
20482;SDS011;10400;53.198;6.592;2023-04-01T06:46:09;29.33;;;17.92;;
20482;SDS011;10400;53.198;6.592;2023-04-01T06:54:55;23.45;;;17.92;;
20482;SDS011;10400;53.198;6.592;2023-04-01T06:57:43;29.50;;;18.77;;
20482;SDS011;10400;53.198;6.592;2023-04-01T07:00:13;24.92;;;18.20;;
20482;SDS011;10400;53.198;6.592;2023-04-01T07:02:50;25.10;;;17.95;;
20482;SDS011;10400;53.198;6.592;2023-04-01T07:05:34;27.48;;;18.85;;
20482;SDS011;10400;53.198;6.592;2023-04-01T07:08:08;27.10;;;18.35;;
20482;SDS011;10400;53.198;6.592;2023-04-01T07:13:30;26.25;;;18.15;;
20482;SDS011;10400;53.198;6.592;2023-04-01T07:18:45;29.95;;;18.48;;
20482;SDS011;10400;53.198;6.592;2023-04-01T07:21:35;26.00;;;18.50;;
20482;SDS011;10400;53.198;6.592;2023-04-01T07:24:09;27.52;;;17.80;;
20482;SDS011;10400;53.198;6.592;2023-04-01T07:26:40;28.98;;;19.13;;
20482;SDS011;10400;53.198;6.592;2023-04-01T07:29:09;27.65;;;18.90;;
20482;SDS011;10400;53.198;6.592;2023-04-01T07:34:23;25.25;;;17.52;;
20482;SDS011;10400;53.198;6.592;2023-04-01T07:42:21;25.42;;;17.33;;
20482;SDS011;10400;53.198;6.592;2023-04-01T07:50:31;22.23;;;16.08;;
20482;SDS011;10400;53.198;6.592;2023-04-01T07:53:07;21.92;;;15.48;;
20482;SDS011;10400;53.198;6.592;2023-04-01T07:55:50;18.55;;;14.15;;
20482;SDS011;10400;53.198;6.592;2023-04-01T08:01:29;21.73;;;15.32;;
20482;SDS011;10400;53.198;6.592;2023-04-01T08:04:06;22.27;;;15.43;;
20482;SDS011;10400;53.198;6.592;2023-04-01T08:09:27;21.58;;;14.80;;
20482;SDS011;10400;53.198;6.592;2023-04-01T08:14:51;20.85;;;13.95;;
20482;SDS011;10400;53.198;6.592;2023-04-01T08:17:20;21.83;;;15.05;;
20482;SDS011;10400;53.198;6.592;2023-04-01T08:22:41;19.40;;;14.63;;
20482;SDS011;10400;53.198;6.592;2023-04-01T08:25:13;19.42;;;13.55;;
20482;SDS011;10400;53.198;6.592;2023-04-01T08:27:47;19.17;;;14.13;;
20482;SDS011;10400;53.198;6.592;2023-04-01T08:30:23;17.63;;;12.27;;
20482;SDS011;10400;53.198;6.592;2023-04-01T08:35:29;16.63;;;11.20;;
20482;SDS011;10400;53.198;6.592;2023-04-01T08:37:59;15.35;;;11.57;;
20482;SDS011;10400;53.198;6.592;2023-04-01T08:43:35;15.77;;;12.05;;
20482;SDS011;10400;53.198;6.592;2023-04-01T08:53:49;15.27;;;10.93;;
20482;SDS011;10400;53.198;6.592;2023-04-01T09:04:57;10.73;;;8.88;;
20482;SDS011;10400;53.198;6.592;2023-04-01T09:13:13;7.38;;;5.80;;
20482;SDS011;10400;53.198;6.592;2023-04-01T09:21:04;6.40;;;4.57;;
20482;SDS011;10400;53.198;6.592;2023-04-01T09:32:15;5.97;;;3.60;;
20482;SDS011;10400;53.198;6.592;2023-04-01T09:37:57;3.55;;;2.97;;
20482;SDS011;10400;53.198;6.592;2023-04-01T09:40:34;3.45;;;2.92;;
20482;SDS011;10400;53.198;6.592;2023-04-01T09:43:23;4.43;;;3.33;;
20482;SDS011;10400;53.198;6.592;2023-04-01T09:49:14;4.57;;;3.42;;
20482;SDS011;10400;53.198;6.592;2023-04-01T09:55:55;6.35;;;3.05;;
20482;SDS011;10400;53.198;6.592;2023-04-01T09:58:27;5.65;;;2.95;;
20482;SDS011;10400;53.198;6.592;2023-04-01T10:04:37;3.78;;;2.67;;
20482;SDS011;10400;53.198;6.592;2023-04-01T10:15:35;4.38;;;2.70;;
20482;SDS011;10400;53.198;6.592;2023-04-01T10:27:04;4.93;;;2.42;;
20482;SDS011;10400;53.198;6.592;2023-04-01T10:38:31;3.08;;;1.90;;
20482;SDS011;10400;53.198;6.592;2023-04-01T11:15:10;4.45;;;2.35;;
20482;SDS011;10400;53.198;6.592;2023-04-01T11:32:02;4.25;;;2.05;;
20482;SDS011;10400;53.198;6.592;2023-04-01T11:40:27;2.20;;;2.00;;
20482;SDS011;10400;53.198;6.592;2023-04-01T11:43:16;2.75;;;2.15;;
20482;SDS011;10400;53.198;6.592;2023-04-01T11:46:19;2.30;;;2.08;;
20482;SDS011;10400;53.198;6.592;2023-04-01T12:05:43;3.58;;;2.55;;
20482;SDS011;10400;53.198;6.592;2023-04-01T12:11:26;3.22;;;1.85;;
20482;SDS011;10400;53.198;6.592;2023-04-01T12:20:12;2.15;;;1.70;;
20482;SDS011;10400;53.198;6.592;2023-04-01T12:25:40;1.95;;;1.60;;
20482;SDS011;10400;53.198;6.592;2023-04-01T12:42:35;2.97;;;1.70;;
20482;SDS011;10400;53.198;6.592;2023-04-01T12:50:56;2.45;;;1.77;;
20482;SDS011;10400;53.198;6.592;2023-04-01T13:02:07;2.92;;;1.73;;
20482;SDS011;10400;53.198;6.592;2023-04-01T13:05:01;1.90;;;1.80;;
20482;SDS011;10400;53.198;6.592;2023-04-01T13:18:57;3.10;;;2.22;;
20482;SDS011;10400;53.198;6.592;2023-04-01T13:40:59;2.28;;;1.80;;
20482;SDS011;10400;53.198;6.592;2023-04-01T13:43:37;1.90;;;1.73;;
20482;SDS011;10400;53.198;6.592;2023-04-01T13:57:02;1.42;;;1.33;;
20482;SDS011;10400;53.198;6.592;2023-04-01T14:13:50;1.67;;;1.30;;
20482;SDS011;10400;53.198;6.592;2023-04-01T14:35:35;1.23;;;1.13;;
20482;SDS011;10400;53.198;6.592;2023-04-01T14:41:00;1.20;;;1.10;;
20482;SDS011;10400;53.198;6.592;2023-04-01T14:43:46;1.95;;;1.20;;
20482;SDS011;10400;53.198;6.592;2023-04-01T14:49:05;1.88;;;1.30;;
20482;SDS011;10400;53.198;6.592;2023-04-01T14:51:48;1.77;;;1.25;;
20482;SDS011;10400;53.198;6.592;2023-04-01T14:54:20;2.10;;;1.50;;
20482;SDS011;10400;53.198;6.592;2023-04-01T14:57:11;2.55;;;1.38;;
20482;SDS011;10400;53.198;6.592;2023-04-01T15:00:27;1.40;;;1.30;;
20482;SDS011;10400;53.198;6.592;2023-04-01T15:05:32;3.90;;;1.80;;
20482;SDS011;10400;53.198;6.592;2023-04-01T15:08:29;2.40;;;1.65;;
20482;SDS011;10400;53.198;6.592;2023-04-01T15:19:31;3.22;;;1.77;;
20482;SDS011;10400;53.198;6.592;2023-04-01T15:42:04;7.70;;;2.65;;
20482;SDS011;10400;53.198;6.592;2023-04-01T15:49:56;5.03;;;2.67;;
20482;SDS011;10400;53.198;6.592;2023-04-01T15:57:48;3.30;;;2.22;;
20482;SDS011;10400;53.198;6.592;2023-04-01T16:00:44;3.70;;;2.60;;
20482;SDS011;10400;53.198;6.592;2023-04-01T16:12:51;5.22;;;2.92;;
20482;SDS011;10400;53.198;6.592;2023-04-01T16:21:00;8.88;;;4.20;;
20482;SDS011;10400;53.198;6.592;2023-04-01T16:34:43;6.38;;;4.47;;
20482;SDS011;10400;53.198;6.592;2023-04-01T16:37:21;10.40;;;3.90;;
20482;SDS011;10400;53.198;6.592;2023-04-01T16:43:38;8.73;;;4.15;;
20482;SDS011;10400;53.198;6.592;2023-04-01T16:51:40;6.05;;;4.10;;
20482;SDS011;10400;53.198;6.592;2023-04-01T17:00:27;5.75;;;4.20;;
20482;SDS011;10400;53.198;6.592;2023-04-01T17:02:45;8.45;;;4.32;;
20482;SDS011;10400;53.198;6.592;2023-04-01T17:05:42;6.72;;;4.30;;
20482;SDS011;10400;53.198;6.592;2023-04-01T17:11:41;7.25;;;4.13;;
20482;SDS011;10400;53.198;6.592;2023-04-01T17:17:20;6.82;;;3.67;;
20482;SDS011;10400;53.198;6.592;2023-04-01T17:20:13;6.82;;;4.15;;
20482;SDS011;10400;53.198;6.592;2023-04-01T17:31:32;7.88;;;4.13;;
20482;SDS011;10400;53.198;6.592;2023-04-01T17:45:24;11.15;;;3.85;;
20482;SDS011;10400;53.198;6.592;2023-04-01T17:50:53;8.43;;;3.80;;
20482;SDS011;10400;53.198;6.592;2023-04-01T17:53:47;5.38;;;3.30;;
20482;SDS011;10400;53.198;6.592;2023-04-01T18:02:15;9.07;;;4.88;;
20482;SDS011;10400;53.198;6.592;2023-04-01T18:07:55;8.02;;;4.93;;
20482;SDS011;10400;53.198;6.592;2023-04-01T18:13:59;9.48;;;5.30;;
20482;SDS011;10400;53.198;6.592;2023-04-01T18:19:46;10.07;;;4.95;;
20482;SDS011;10400;53.198;6.592;2023-04-01T18:24:56;12.07;;;4.68;;
20482;SDS011;10400;53.198;6.592;2023-04-01T18:27:36;8.45;;;5.22;;
20482;SDS011;10400;53.198;6.592;2023-04-01T18:40:51;11.68;;;5.80;;
20482;SDS011;10400;53.198;6.592;2023-04-01T18:46:16;16.90;;;5.57;;
20482;SDS011;10400;53.198;6.592;2023-04-01T18:49:07;12.73;;;5.25;;
20482;SDS011;10400;53.198;6.592;2023-04-01T19:00:25;11.70;;;5.82;;
20482;SDS011;10400;53.198;6.592;2023-04-01T19:02:57;11.23;;;5.70;;
20482;SDS011;10400;53.198;6.592;2023-04-01T19:05:33;7.40;;;5.38;;
20482;SDS011;10400;53.198;6.592;2023-04-01T19:13:54;13.18;;;6.20;;
20482;SDS011;10400;53.198;6.592;2023-04-01T19:48:55;10.43;;;4.72;;
20482;SDS011;10400;53.198;6.592;2023-04-01T19:57:12;7.85;;;5.00;;
20482;SDS011;10400;53.198;6.592;2023-04-01T20:04:58;11.15;;;5.07;;
20482;SDS011;10400;53.198;6.592;2023-04-01T20:12:41;8.52;;;4.70;;
20482;SDS011;10400;53.198;6.592;2023-04-01T20:15:54;8.70;;;4.60;;
20482;SDS011;10400;53.198;6.592;2023-04-01T20:18:23;8.02;;;5.32;;
20482;SDS011;10400;53.198;6.592;2023-04-01T20:21:00;7.13;;;4.03;;
20482;SDS011;10400;53.198;6.592;2023-04-01T20:26:21;11.13;;;4.43;;
20482;SDS011;10400;53.198;6.592;2023-04-01T20:36:51;10.38;;;4.32;;
20482;SDS011;10400;53.198;6.592;2023-04-01T20:39:33;8.00;;;4.10;;
20482;SDS011;10400;53.198;6.592;2023-04-01T21:02:05;7.57;;;3.83;;
20482;SDS011;10400;53.198;6.592;2023-04-01T21:23:49;8.43;;;3.70;;
20482;SDS011;10400;53.198;6.592;2023-04-01T21:26:40;10.10;;;3.88;;
20482;SDS011;10400;53.198;6.592;2023-04-01T21:37:58;6.15;;;3.55;;
20482;SDS011;10400;53.198;6.592;2023-04-01T21:40:57;5.88;;;3.63;;
20482;SDS011;10400;53.198;6.592;2023-04-01T21:43:50;9.57;;;3.92;;
20482;SDS011;10400;53.198;6.592;2023-04-01T22:08:53;10.30;;;3.63;;
20482;SDS011;10400;53.198;6.592;2023-04-01T22:11:27;5.38;;;3.67;;
20482;SDS011;10400;53.198;6.592;2023-04-01T22:14:30;8.98;;;3.45;;
20482;SDS011;10400;53.198;6.592;2023-04-01T22:17:15;6.25;;;3.05;;
20482;SDS011;10400;53.198;6.592;2023-04-01T22:19:59;11.23;;;3.28;;
20482;SDS011;10400;53.198;6.592;2023-04-01T22:28:03;4.63;;;2.67;;
20482;SDS011;10400;53.198;6.592;2023-04-01T22:30:34;3.15;;;2.50;;
20482;SDS011;10400;53.198;6.592;2023-04-01T22:33:17;5.25;;;2.78;;
20482;SDS011;10400;53.198;6.592;2023-04-01T22:35:57;8.25;;;3.13;;
20482;SDS011;10400;53.198;6.592;2023-04-01T22:49:39;7.18;;;3.22;;
20482;SDS011;10400;53.198;6.592;2023-04-01T22:52:19;9.77;;;3.78;;
20482;SDS011;10400;53.198;6.592;2023-04-01T22:54:59;8.32;;;3.85;;
20482;SDS011;10400;53.198;6.592;2023-04-01T22:57:49;8.90;;;2.97;;
20482;SDS011;10400;53.198;6.592;2023-04-01T23:05:38;7.90;;;3.35;;
20482;SDS011;10400;53.198;6.592;2023-04-01T23:11:05;5.83;;;3.00;;
20482;SDS011;10400;53.198;6.592;2023-04-01T23:14:01;8.95;;;2.67;;
20482;SDS011;10400;53.198;6.592;2023-04-01T23:16:36;5.93;;;3.00;;
20482;SDS011;10400;53.198;6.592;2023-04-01T23:19:19;6.40;;;3.00;;
20482;SDS011;10400;53.198;6.592;2023-04-01T23:21:58;4.77;;;2.80;;
20482;SDS011;10400;53.198;6.592;2023-04-01T23:27:25;10.30;;;3.47;;
20482;SDS011;10400;53.198;6.592;2023-04-01T23:29:56;4.20;;;2.83;;
20482;SDS011;10400;53.198;6.592;2023-04-01T23:32:23;5.65;;;2.75;;
20482;SDS011;10400;53.198;6.592;2023-04-01T23:34:55;8.83;;;3.13;;
20482;SDS011;10400;53.198;6.592;2023-04-01T23:37:23;5.43;;;2.60;;
20482;SDS011;10400;53.198;6.592;2023-04-01T23:39:50;5.15;;;3.08;;
20482;SDS011;10400;53.198;6.592;2023-04-01T23:42:19;7.65;;;2.75;;
20482;SDS011;10400;53.198;6.592;2023-04-01T23:47:49;13.47;;;3.33;;
20482;SDS011;10400;53.198;6.592;2023-04-01T23:50:20;8.70;;;3.23;;
20482;SDS011;10400;53.198;6.592;2023-04-01T23:55:25;6.30;;;2.57;;
